الصفحة الرئيسية
METAR-TAF:

METAR-TAF

مطار :

كرايستشيرش, نيوزيلندا

دائرة عرض: 43-29S, خط طول: 172-33E, ارتفاع: 38 متر

مراقبة الطقس الحالي

تاريخ ووقت الإصدار 31 دقيقة قبل الساعة 15:30UTC
ريح 3 عقدة من الشمال
درجة الحرارة 6°درجة مئوية
الرطوبة 87%
ضغط 1004 hPa
الرؤية 10 كم أو أكثر

METAR: NZCH 191530Z AUTO 01003KT 9999 OVC027/// 06/04 Q1004 NOSIG

زمن: 05:01 (16:01 UTC)

توقعات

تاريخ ووقت الإصدار 4ساعات و 53 دقيقة قبل الساعة 11:08UTC
التوقعات صالحة من19 الساعة 12 UTC إلى 20 الساعة 12 UTC
ريح 5 عقدة من الغرب/الشمال الغربي
الرؤية 10 كم أو أكثر
غيوم مفككة على ارتفاع 2000 قدم
زخات من الأمطار الخفيفة
مؤقت
من 19 الساعة 12 UTC إلى 19 الساعة 18 UTC
الرؤية: 6000 متر
زخات من المطر
أصبح
من 19 الساعة 22 UTC إلى 20 الساعة 00 UTC
ريح 20 عقدة من الغرب/الجنوب الغربي تتزايد حتى 30 عقدة
مؤقت
من 20 الساعة 00 UTC إلى 20 الساعة 05 UTC
الرؤية: 5000 متر
مطر
أصبح
من 20 الساعة 02 UTC إلى 20 الساعة 04 UTC
ريح 15 عقدة من الشمال/الشمال الشرقي

TAF: NZCH 191108Z 1912/2012 30005KT 9999 -SHRA BKN020 TEMPO 1912/1918 6000 SHRA BECMG 1922/2000 24020G30KT TEMPO 2000/2005 5000 RA BECMG 2002/2004 02015KT

أرصاد الطقس والتوقعات من أكثر من 4000 مطار (تقارير الطقس للمطار METAR والتنبؤ بالطقس بالمطارTAF).

المحطات المتاحة هي النقط الصفراء والحمراء على الخريطة.

حرك المؤشر فوق النقطة لمعرفة اسم المحطة.

ثم انقر لمعرفة أرصاد وتوقعات الطقس.

لتغيير الخارطة: اضغط على الأزرار الخضراء مع رمز الصليب الأسود للتكبير. على الزر الأخضر مع شرطة للتصغير، أو على الأسهم الخضراء للخرائط المجاورة.


METAR-TAF: